createdAt,value
2022-11-05T00:02:28.427Z,9.50
2022-11-05T00:08:12.304Z,9.60
2022-11-05T00:13:36.779Z,9.40
2022-11-05T00:16:27.788Z,9.40
2022-11-05T00:19:09.092Z,9.40
2022-11-05T00:22:00.118Z,9.40
2022-11-05T00:24:50.383Z,9.40
2022-11-05T00:29:55.425Z,9.40
2022-11-05T00:32:28.730Z,9.40
2022-11-05T00:37:35.335Z,9.30
2022-11-05T00:40:08.719Z,9.30
2022-11-05T00:43:02.640Z,9.20
2022-11-05T00:50:58.993Z,9.10
2022-11-05T00:53:30.951Z,9.10
2022-11-05T00:56:04.461Z,9.20
2022-11-05T00:58:36.406Z,9.20
2022-11-05T01:01:12.004Z,9.30
2022-11-05T01:06:24.772Z,9.30
2022-11-05T01:08:56.702Z,9.30
2022-11-05T01:11:34.319Z,9.30
2022-11-05T01:14:11.044Z,9.30
2022-11-05T01:16:43.488Z,9.30
2022-11-05T01:19:16.190Z,9.30
2022-11-05T01:24:21.240Z,9.20
2022-11-05T01:26:53.120Z,9.20
2022-11-05T01:29:25.711Z,9.20
2022-11-05T01:34:30.776Z,9.20
2022-11-05T01:37:03.098Z,9.20
2022-11-05T01:39:34.998Z,9.30
2022-11-05T01:42:22.094Z,9.30
2022-11-05T01:45:03.394Z,9.30
2022-11-05T01:47:42.264Z,9.30
2022-11-05T01:50:37.349Z,9.40
2022-11-05T01:53:18.741Z,9.40
2022-11-05T01:56:18.842Z,9.40
2022-11-05T01:59:04.344Z,9.40
2022-11-05T02:01:37.352Z,9.50
2022-11-05T02:04:15.196Z,9.50
2022-11-05T02:06:47.978Z,9.50
2022-11-05T02:09:36.206Z,9.50
2022-11-05T02:12:09.421Z,9.50
2022-11-05T02:14:41.689Z,9.50
2022-11-05T02:17:45.739Z,9.50
2022-11-05T02:20:48.014Z,9.60
2022-11-05T02:24:01.576Z,9.60
2022-11-05T02:27:19.226Z,9.60
2022-11-05T02:30:25.832Z,9.60
2022-11-05T02:33:38.325Z,9.50
2022-11-05T02:36:39.221Z,9.50
2022-11-05T02:39:17.102Z,9.60
2022-11-05T02:42:18.805Z,9.60
2022-11-05T02:45:08.780Z,9.70
2022-11-05T02:48:23.995Z,9.70
2022-11-05T02:51:37.063Z,9.60
2022-11-05T02:54:37.660Z,9.60
2022-11-05T02:57:09.729Z,9.60
2022-11-05T02:59:42.470Z,9.40
2022-11-05T03:02:14.765Z,9.40
2022-11-05T03:04:47.574Z,9.30
2022-11-05T03:07:25.804Z,9.30
2022-11-05T03:10:26.260Z,9.30
2022-11-05T03:13:34.099Z,9.30
2022-11-05T03:16:18.792Z,9.20
2022-11-05T03:19:07.106Z,9.20
2022-11-05T03:21:48.694Z,9.30
2022-11-05T03:24:33.603Z,9.30
2022-11-05T03:27:30.876Z,9.30
2022-11-05T03:30:07.906Z,9.40
2022-11-05T03:32:45.699Z,9.30
2022-11-05T03:35:26.769Z,9.30
2022-11-05T03:38:05.976Z,9.30
2022-11-05T03:40:39.528Z,9.30
2022-11-05T03:43:14.492Z,9.30
2022-11-05T03:46:08.143Z,9.20
2022-11-05T03:48:46.760Z,9.20
2022-11-05T03:51:34.446Z,9.20
2022-11-05T03:54:07.269Z,9.10
2022-11-05T03:57:02.731Z,9.10
2022-11-05T03:59:43.315Z,9.10
2022-11-05T04:02:19.795Z,9.10
2022-11-05T04:04:53.289Z,9.10
2022-11-05T04:07:44.051Z,9.10
2022-11-05T04:10:34.505Z,9.10
2022-11-05T04:13:26.910Z,9.20
2022-11-05T04:16:17.585Z,9.20
2022-11-05T04:18:49.449Z,9.20
2022-11-05T04:21:40.506Z,9.20
2022-11-05T04:24:12.787Z,9.20
2022-11-05T04:29:36.347Z,9.30
2022-11-05T04:34:41.335Z,9.20
2022-11-05T04:37:14.027Z,9.20
2022-11-05T04:39:45.868Z,9.30
2022-11-05T04:42:18.760Z,9.30
2022-11-05T04:44:50.617Z,9.30
2022-11-05T04:47:23.324Z,9.40
2022-11-05T04:49:55.197Z,9.40
2022-11-05T04:55:00.134Z,9.30
2022-11-05T04:57:32.894Z,9.30
2022-11-05T05:00:09.859Z,9.30
2022-11-05T05:05:15.410Z,9.30
2022-11-05T05:07:47.312Z,9.40
2022-11-05T05:10:20.121Z,9.50
2022-11-05T05:15:24.759Z,9.40
2022-11-05T05:17:57.089Z,9.30
2022-11-05T05:20:47.493Z,9.30
2022-11-05T05:23:20.198Z,9.40
2022-11-05T05:25:52.108Z,9.40
2022-11-05T05:31:00.636Z,9.40
2022-11-05T05:33:33.431Z,9.40
2022-11-05T05:36:11.097Z,9.40
2022-11-05T05:38:44.053Z,9.40
2022-11-05T05:41:17.159Z,9.50
2022-11-05T05:43:50.371Z,9.50
2022-11-05T05:46:22.723Z,9.50
2022-11-05T05:48:54.587Z,9.50
2022-11-05T05:51:27.297Z,9.40
2022-11-05T05:53:59.550Z,9.50
2022-11-05T05:56:31.592Z,9.60
2022-11-05T05:59:06.420Z,9.60
2022-11-05T06:01:38.689Z,9.60
2022-11-05T06:04:11.483Z,9.50
2022-11-05T06:06:47.132Z,9.50
2022-11-05T06:09:18.984Z,9.50
2022-11-05T06:11:51.786Z,9.60
2022-11-05T06:14:23.647Z,9.60
2022-11-05T06:16:56.356Z,9.60
2022-11-05T06:19:29.162Z,9.60
2022-11-05T06:22:01.914Z,9.60
2022-11-05T06:24:34.193Z,9.60
2022-11-05T06:27:06.034Z,9.50
2022-11-05T06:29:38.708Z,9.50
2022-11-05T06:34:43.643Z,9.50
2022-11-05T06:44:53.687Z,9.40
2022-11-05T06:47:26.143Z,9.50
2022-11-05T06:49:57.987Z,9.50
2022-11-05T06:52:33.194Z,9.50
2022-11-05T06:55:07.002Z,9.60
2022-11-05T06:57:39.681Z,9.60
2022-11-05T07:00:12.091Z,9.60
2022-11-05T07:02:45.621Z,9.70
2022-11-05T07:05:18.040Z,9.70
2022-11-05T07:07:50.859Z,9.70
2022-11-05T07:10:22.815Z,9.80
2022-11-05T07:12:55.568Z,9.80
2022-11-05T07:15:27.780Z,9.80
2022-11-05T07:18:01.695Z,9.80
2022-11-05T07:20:34.732Z,9.80
2022-11-05T07:23:12.007Z,9.90
2022-11-05T07:25:44.486Z,11.70
2022-11-05T07:28:16.780Z,12.90
2022-11-05T07:30:48.674Z,12.90
2022-11-05T07:35:56.946Z,11.20
2022-11-05T07:38:29.286Z,10.80
2022-11-05T07:41:01.491Z,10.60
2022-11-05T07:43:34.203Z,10.40
2022-11-05T07:46:11.172Z,10.40
2022-11-05T07:48:45.847Z,10.30
2022-11-05T07:53:50.883Z,10.30
2022-11-05T07:56:23.828Z,10.30
2022-11-05T07:58:55.727Z,10.30
2022-11-05T08:01:28.872Z,10.30
2022-11-05T08:04:00.954Z,10.30
2022-11-05T08:06:33.677Z,10.40
2022-11-05T08:09:06.020Z,10.40
2022-11-05T08:11:38.335Z,10.50
2022-11-05T08:14:10.796Z,10.50
2022-11-05T08:16:42.637Z,10.60
2022-11-05T08:19:15.331Z,10.70
2022-11-05T08:21:47.613Z,10.80
2022-11-05T08:24:19.485Z,10.80
2022-11-05T08:26:53.740Z,10.70
2022-11-05T08:31:58.732Z,10.80
2022-11-05T08:34:31.077Z,10.70
2022-11-05T08:37:03.544Z,10.60
2022-11-05T08:39:36.265Z,10.50
2022-11-05T08:42:08.590Z,10.50
2022-11-05T08:44:40.944Z,10.50
2022-11-05T08:47:12.955Z,10.60
2022-11-05T08:49:45.623Z,10.60
2022-11-05T08:54:50.673Z,10.60
2022-11-05T08:57:22.585Z,10.50
2022-11-05T08:59:55.331Z,10.50
2022-11-05T09:02:27.837Z,10.40
2022-11-05T09:04:59.734Z,10.40
2022-11-05T09:10:05.469Z,10.50
2022-11-05T09:12:38.235Z,10.40
2022-11-05T09:17:43.936Z,10.40
2022-11-05T09:20:15.860Z,10.50
2022-11-05T09:22:48.852Z,10.50
2022-11-05T09:25:21.197Z,10.50
2022-11-05T09:27:53.584Z,10.60
2022-11-05T09:30:25.431Z,10.70
2022-11-05T09:32:58.139Z,10.70
2022-11-05T09:35:30.024Z,10.70
2022-11-05T09:38:02.755Z,10.80
2022-11-05T09:41:02.320Z,10.80
2022-11-05T09:43:40.939Z,10.80
2022-11-05T09:46:29.434Z,10.80
2022-11-05T09:49:06.720Z,10.80
2022-11-05T09:51:41.055Z,10.80
2022-11-05T09:54:14.855Z,10.80
2022-11-05T09:59:45.573Z,10.70
2022-11-05T10:02:21.367Z,10.80
2022-11-05T10:05:02.496Z,10.90
2022-11-05T10:07:50.855Z,11.00
2022-11-05T10:10:48.874Z,11.10
2022-11-05T10:13:43.462Z,11.30
2022-11-05T10:16:24.331Z,11.00
2022-11-05T10:19:11.994Z,11.40
2022-11-05T10:22:05.603Z,11.70
2022-11-05T10:24:39.299Z,11.90
2022-11-05T10:27:19.034Z,12.10
2022-11-05T10:29:51.587Z,12.00
2022-11-05T10:32:40.930Z,11.90
2022-11-05T10:35:18.992Z,11.80
2022-11-05T10:37:53.944Z,11.80
2022-11-05T10:40:47.717Z,11.80
2022-11-05T10:43:55.216Z,11.80
2022-11-05T10:46:44.731Z,12.00
2022-11-05T10:50:03.585Z,11.00
2022-11-05T10:52:51.525Z,11.80
2022-11-05T10:55:35.728Z,11.60
2022-11-05T10:58:20.083Z,11.10
2022-11-05T11:03:46.607Z,11.10
2022-11-05T11:06:31.888Z,11.10
2022-11-05T11:09:11.857Z,11.00
2022-11-05T11:11:45.169Z,10.70
2022-11-05T11:14:18.120Z,10.80
2022-11-05T11:16:51.668Z,10.90
2022-11-05T11:19:42.555Z,11.00
2022-11-05T11:22:19.798Z,11.00
2022-11-05T11:24:54.426Z,10.70
2022-11-05T11:27:29.990Z,10.80
2022-11-05T11:30:05.271Z,10.80
2022-11-05T11:32:39.429Z,10.80
2022-11-05T11:35:24.812Z,10.70
2022-11-05T11:37:58.482Z,10.80
2022-11-05T11:40:37.007Z,10.90
2022-11-05T11:43:31.288Z,10.80
2022-11-05T11:46:09.874Z,10.90
2022-11-05T11:48:48.067Z,11.10
2022-11-05T11:51:33.101Z,11.20
2022-11-05T11:54:18.080Z,11.10
2022-11-05T12:00:01.776Z,11.20
2022-11-05T12:02:44.661Z,11.10
2022-11-05T12:07:58.415Z,11.50
2022-11-05T12:10:51.703Z,11.40
2022-11-05T12:14:05.331Z,11.50
2022-11-05T12:17:07.341Z,11.50
2022-11-05T12:20:26.502Z,11.60
2022-11-05T12:23:17.226Z,11.80
2022-11-05T12:26:11.481Z,11.80
2022-11-05T12:29:18.910Z,11.80
2022-11-05T12:32:26.938Z,11.90
2022-11-05T12:35:45.688Z,12.10
2022-11-05T12:39:01.364Z,12.20
2022-11-05T12:41:55.066Z,12.30
2022-11-05T12:45:05.316Z,12.40
2022-11-05T12:48:03.314Z,12.50
2022-11-05T12:50:55.628Z,12.40
2022-11-05T12:54:01.285Z,12.10
2022-11-05T12:56:43.591Z,12.50
2022-11-05T12:59:29.023Z,12.60
2022-11-05T13:02:30.672Z,12.90
2022-11-05T13:05:39.429Z,13.60
2022-11-05T13:08:32.839Z,14.00
2022-11-05T13:11:28.834Z,13.60
2022-11-05T13:14:09.447Z,13.10
2022-11-05T13:16:50.766Z,13.10
2022-11-05T13:19:44.410Z,13.00
2022-11-05T13:22:40.488Z,12.80
2022-11-05T13:25:28.696Z,12.50
2022-11-05T13:28:29.202Z,12.40
2022-11-05T13:31:05.304Z,12.20
2022-11-05T13:33:43.561Z,12.10
2022-11-05T13:37:03.594Z,12.20
2022-11-05T13:39:42.433Z,12.20
2022-11-05T13:43:02.056Z,12.10
2022-11-05T13:46:25.359Z,12.10
2022-11-05T13:49:29.543Z,12.20
2022-11-05T13:52:32.520Z,12.30
2022-11-05T13:56:03.352Z,12.40
2022-11-05T13:59:07.624Z,12.50
2022-11-05T14:01:58.677Z,12.60
2022-11-05T14:04:42.294Z,12.60
2022-11-05T14:07:32.220Z,12.50
2022-11-05T14:10:36.232Z,12.50
2022-11-05T14:13:43.222Z,12.20
2022-11-05T14:16:22.659Z,12.20
2022-11-05T14:19:19.722Z,12.30
2022-11-05T14:24:43.518Z,12.20
2022-11-05T14:29:50.208Z,12.00
2022-11-05T14:35:38.180Z,11.90
2022-11-05T14:38:26.932Z,11.90
2022-11-05T14:41:02.497Z,11.90
2022-11-05T14:43:36.589Z,11.90
2022-11-05T14:46:10.555Z,11.90
2022-11-05T14:48:51.782Z,11.80
2022-11-05T14:51:33.982Z,11.80
2022-11-05T14:54:23.292Z,10.30
2022-11-05T14:56:59.796Z,12.00
2022-11-05T14:59:56.907Z,12.00
2022-11-05T15:02:37.646Z,12.00
2022-11-05T15:05:36.793Z,12.10
2022-11-05T15:08:26.555Z,12.00
2022-11-05T15:11:24.210Z,11.90
2022-11-05T15:13:55.972Z,11.90
2022-11-05T15:16:41.087Z,11.80
2022-11-05T15:19:35.027Z,11.80
2022-11-05T15:22:33.339Z,11.60
2022-11-05T15:25:15.899Z,11.50
2022-11-05T15:28:23.564Z,11.50
2022-11-05T15:31:03.234Z,11.40
2022-11-05T15:33:35.996Z,11.20
2022-11-05T15:36:31.583Z,11.20
2022-11-05T15:39:33.485Z,11.00
2022-11-05T15:42:22.770Z,11.00
2022-11-05T15:44:58.433Z,11.00
2022-11-05T15:47:36.180Z,11.00
2022-11-05T15:50:15.570Z,11.00
2022-11-05T15:52:54.588Z,10.90
2022-11-05T15:55:27.418Z,10.80
2022-11-05T15:58:06.790Z,10.80
2022-11-05T16:03:33.873Z,10.60
2022-11-05T16:06:09.813Z,10.60
2022-11-05T16:08:48.816Z,10.50
2022-11-05T16:11:26.905Z,10.50
2022-11-05T16:14:19.916Z,10.40
2022-11-05T16:16:52.739Z,10.50
2022-11-05T16:19:40.575Z,10.50
2022-11-05T16:24:48.649Z,10.30
2022-11-05T16:27:22.972Z,10.40
2022-11-05T16:29:57.217Z,10.40
2022-11-05T16:32:31.786Z,10.40
2022-11-05T16:35:06.841Z,10.40
2022-11-05T16:37:41.070Z,10.40
2022-11-05T16:40:23.734Z,10.30
2022-11-05T16:43:09.118Z,10.30
2022-11-05T16:45:41.672Z,10.30
2022-11-05T16:48:15.722Z,10.20
2022-11-05T16:50:47.623Z,10.10
2022-11-05T16:53:20.764Z,10.00
2022-11-05T16:55:52.665Z,10.00
2022-11-05T16:58:26.660Z,9.90
2022-11-05T17:01:17.208Z,9.90
2022-11-05T17:03:51.358Z,9.90
2022-11-05T17:08:56.866Z,9.70
2022-11-05T17:14:01.501Z,9.60
2022-11-05T17:16:33.768Z,9.50
2022-11-05T17:19:07.348Z,9.40
2022-11-05T17:21:39.195Z,9.30
2022-11-05T17:24:11.877Z,9.30
2022-11-05T17:26:43.912Z,9.20
2022-11-05T17:29:16.713Z,9.20
2022-11-05T17:31:48.999Z,9.00
2022-11-05T17:34:21.944Z,9.10
2022-11-05T17:39:31.390Z,9.00
2022-11-05T17:42:06.884Z,9.00
2022-11-05T17:44:39.180Z,8.90
2022-11-05T17:47:11.919Z,8.80
2022-11-05T17:49:44.244Z,8.80
2022-11-05T17:52:16.958Z,8.80
2022-11-05T17:54:49.133Z,8.70
2022-11-05T17:59:54.048Z,8.80
2022-11-05T18:02:29.779Z,8.80
2022-11-05T18:05:01.804Z,8.80
2022-11-05T18:07:34.456Z,8.80
2022-11-05T18:10:08.754Z,8.80
2022-11-05T18:12:41.792Z,8.70
2022-11-05T18:15:15.899Z,8.70
2022-11-05T18:17:48.254Z,8.70
2022-11-05T18:20:21.097Z,8.70
2022-11-05T18:22:53.003Z,8.60
2022-11-05T18:27:58.490Z,8.60
2022-11-05T18:30:30.407Z,8.60
2022-11-05T18:33:03.090Z,8.50
2022-11-05T18:35:42.230Z,8.40
2022-11-05T18:40:47.311Z,8.40
2022-11-05T18:43:20.119Z,8.30
2022-11-05T18:45:56.484Z,8.30
2022-11-05T18:48:29.251Z,8.30
2022-11-05T18:51:07.038Z,8.30
2022-11-05T18:53:40.612Z,8.30
2022-11-05T18:56:18.066Z,8.20
2022-11-05T18:59:03.294Z,8.20
2022-11-05T19:01:46.321Z,8.20
2022-11-05T19:04:19.336Z,8.10
2022-11-05T19:06:51.543Z,8.10
2022-11-05T19:09:24.298Z,8.00
2022-11-05T19:17:02.988Z,8.00
2022-11-05T19:19:35.727Z,7.90
2022-11-05T19:24:40.926Z,7.90
2022-11-05T19:27:13.039Z,7.90
2022-11-05T19:29:45.950Z,7.80
2022-11-05T19:32:18.004Z,7.80
2022-11-05T19:34:50.679Z,7.80
2022-11-05T19:37:23.035Z,7.70
2022-11-05T19:39:55.239Z,7.70
2022-11-05T19:42:27.953Z,7.60
2022-11-05T19:45:16.694Z,7.50
2022-11-05T19:47:52.839Z,7.50
2022-11-05T19:50:25.751Z,7.40
2022-11-05T19:52:57.641Z,7.40
2022-11-05T19:55:30.395Z,7.40
2022-11-05T19:58:02.273Z,7.40
2022-11-05T20:00:35.600Z,7.30
2022-11-05T20:08:14.005Z,7.10
2022-11-05T20:10:46.333Z,7.10
2022-11-05T20:13:20.072Z,7.00
2022-11-05T20:18:26.503Z,6.90
2022-11-05T20:21:09.223Z,6.80
2022-11-05T20:23:41.598Z,6.80
2022-11-05T20:26:14.323Z,6.80
2022-11-05T20:28:47.074Z,6.80
2022-11-05T20:31:19.559Z,6.80
2022-11-05T20:36:26.296Z,6.70
2022-11-05T20:38:58.913Z,6.70
2022-11-05T20:41:32.561Z,6.70
2022-11-05T20:44:04.638Z,6.70
2022-11-05T20:46:36.988Z,6.60
2022-11-05T20:49:08.869Z,6.50
2022-11-05T20:51:41.890Z,6.50
2022-11-05T20:54:13.757Z,6.50
2022-11-05T20:59:19.377Z,6.60
2022-11-05T21:01:52.401Z,6.50
2022-11-05T21:09:29.748Z,6.40
2022-11-05T21:12:11.421Z,6.40
2022-11-05T21:17:17.794Z,6.30
2022-11-05T21:19:49.682Z,6.30
2022-11-05T21:22:22.403Z,6.20
2022-11-05T21:24:54.327Z,6.20
2022-11-05T21:29:59.561Z,6.10
2022-11-05T21:32:32.332Z,6.10
2022-11-05T21:35:05.538Z,6.10
2022-11-05T21:37:37.503Z,6.00
2022-11-05T21:40:10.924Z,6.00
2022-11-05T21:42:42.788Z,6.10
2022-11-05T21:45:15.852Z,6.10
2022-11-05T21:47:47.905Z,6.10
2022-11-05T21:50:40.583Z,6.10
2022-11-05T21:53:35.464Z,6.10
2022-11-05T21:56:37.149Z,6.10
2022-11-05T21:59:34.993Z,6.00
2022-11-05T22:02:09.798Z,5.90
2022-11-05T22:04:45.541Z,5.90
2022-11-05T22:07:28.773Z,5.90
2022-11-05T22:10:01.649Z,5.80
2022-11-05T22:12:34.622Z,5.80
2022-11-05T22:15:07.075Z,5.90
2022-11-05T22:17:45.309Z,5.90
2022-11-05T22:20:19.406Z,5.90
2022-11-05T22:25:25.186Z,5.80
2022-11-05T22:27:57.393Z,5.80
2022-11-05T22:30:30.236Z,5.70
2022-11-05T22:33:02.255Z,5.70
2022-11-05T22:35:35.216Z,5.60
2022-11-05T22:38:07.077Z,5.60
2022-11-05T22:40:39.757Z,5.50
2022-11-05T22:43:11.628Z,5.60
2022-11-05T22:45:44.320Z,5.50
2022-11-05T22:48:16.376Z,5.50
2022-11-05T22:50:49.138Z,5.50
2022-11-05T22:53:21.027Z,5.50
2022-11-05T22:55:53.688Z,5.50
2022-11-05T23:00:59.064Z,5.40
2022-11-05T23:03:33.268Z,5.40
2022-11-05T23:06:35.824Z,5.50
2022-11-05T23:09:35.872Z,5.50
2022-11-05T23:12:33.576Z,5.30
2022-11-05T23:15:08.008Z,5.30
2022-11-05T23:17:59.024Z,5.40
2022-11-05T23:20:49.708Z,5.40
2022-11-05T23:23:40.613Z,5.40
2022-11-05T23:26:30.798Z,5.40
2022-11-05T23:29:04.648Z,5.40
2022-11-05T23:31:54.984Z,5.30
2022-11-05T23:34:28.898Z,5.30
2022-11-05T23:37:19.259Z,5.30
2022-11-05T23:39:52.017Z,5.30
2022-11-05T23:42:43.137Z,5.30
2022-11-05T23:45:34.182Z,5.30
2022-11-05T23:48:19.194Z,5.30
2022-11-05T23:50:57.284Z,5.30
2022-11-05T23:53:31.961Z,5.40
2022-11-05T23:56:06.621Z,5.30
2022-11-05T23:58:41.040Z,5.30
